sensor_id;sensor_type;location;lat;lon;timestamp;temperature;humidity
8002;DHT22;4046;48.774;8.732;2023-01-24T00:01:19;23.60;74.50
8002;DHT22;4046;48.774;8.732;2023-01-24T00:03:45;23.60;74.50
8002;DHT22;4046;48.774;8.732;2023-01-24T00:06:11;23.60;74.50
8002;DHT22;4046;48.774;8.732;2023-01-24T00:08:38;23.60;74.50
8002;DHT22;4046;48.774;8.732;2023-01-24T00:11:06;23.60;74.50
8002;DHT22;4046;48.774;8.732;2023-01-24T00:13:34;23.60;74.50
8002;DHT22;4046;48.774;8.732;2023-01-24T00:16:15;23.60;74.50
8002;DHT22;4046;48.774;8.732;2023-01-24T00:18:42;23.60;74.50
8002;DHT22;4046;48.774;8.732;2023-01-24T00:21:11;23.60;74.50
8002;DHT22;4046;48.774;8.732;2023-01-24T00:23:43;23.60;74.50
8002;DHT22;4046;48.774;8.732;2023-01-24T00:26:10;23.60;74.50
8002;DHT22;4046;48.774;8.732;2023-01-24T00:28:37;23.60;74.50
8002;DHT22;4046;48.774;8.732;2023-01-24T00:31:04;23.60;74.50
8002;DHT22;4046;48.774;8.732;2023-01-24T00:33:30;23.60;74.50
8002;DHT22;4046;48.774;8.732;2023-01-24T00:35:57;23.60;74.50
8002;DHT22;4046;48.774;8.732;2023-01-24T00:38:23;23.60;74.50
8002;DHT22;4046;48.774;8.732;2023-01-24T00:40:50;23.60;74.50
8002;DHT22;4046;48.774;8.732;2023-01-24T00:43:16;23.60;74.50
8002;DHT22;4046;48.774;8.732;2023-01-24T00:45:44;23.60;74.50
8002;DHT22;4046;48.774;8.732;2023-01-24T00:48:12;23.60;74.50
8002;DHT22;4046;48.774;8.732;2023-01-24T00:50:38;23.60;74.50
8002;DHT22;4046;48.774;8.732;2023-01-24T00:53:04;23.60;74.40
8002;DHT22;4046;48.774;8.732;2023-01-24T00:55:31;23.60;74.50
8002;DHT22;4046;48.774;8.732;2023-01-24T00:57:57;23.60;74.50
8002;DHT22;4046;48.774;8.732;2023-01-24T01:00:25;23.60;74.50
8002;DHT22;4046;48.774;8.732;2023-01-24T01:02:52;23.60;74.50
8002;DHT22;4046;48.774;8.732;2023-01-24T01:05:18;23.60;74.50
8002;DHT22;4046;48.774;8.732;2023-01-24T01:07:44;23.60;74.50
8002;DHT22;4046;48.774;8.732;2023-01-24T01:10:10;23.60;74.50
8002;DHT22;4046;48.774;8.732;2023-01-24T01:12:36;23.60;74.50
8002;DHT22;4046;48.774;8.732;2023-01-24T01:15:03;23.60;74.50
8002;DHT22;4046;48.774;8.732;2023-01-24T01:17:29;23.60;74.50
8002;DHT22;4046;48.774;8.732;2023-01-24T01:19:55;23.60;74.50
8002;DHT22;4046;48.774;8.732;2023-01-24T01:22:22;23.60;74.50
8002;DHT22;4046;48.774;8.732;2023-01-24T01:24:48;23.60;74.50
8002;DHT22;4046;48.774;8.732;2023-01-24T01:27:14;23.60;75.30
8002;DHT22;4046;48.774;8.732;2023-01-24T01:29:40;23.60;74.40
8002;DHT22;4046;48.774;8.732;2023-01-24T01:32:06;23.60;74.50
8002;DHT22;4046;48.774;8.732;2023-01-24T01:34:33;23.60;74.50
8002;DHT22;4046;48.774;8.732;2023-01-24T01:36:59;23.60;74.50
8002;DHT22;4046;48.774;8.732;2023-01-24T01:39:25;23.60;74.40
8002;DHT22;4046;48.774;8.732;2023-01-24T01:41:51;23.60;74.40
8002;DHT22;4046;48.774;8.732;2023-01-24T01:44:24;23.60;74.50
8002;DHT22;4046;48.774;8.732;2023-01-24T01:47:25;23.60;74.40
8002;DHT22;4046;48.774;8.732;2023-01-24T01:52:22;23.60;74.50
8002;DHT22;4046;48.774;8.732;2023-01-24T01:54:49;23.60;74.50
8002;DHT22;4046;48.774;8.732;2023-01-24T01:57:24;23.60;74.50
8002;DHT22;4046;48.774;8.732;2023-01-24T01:59:55;23.60;74.50
8002;DHT22;4046;48.774;8.732;2023-01-24T02:02:23;23.60;74.50
8002;DHT22;4046;48.774;8.732;2023-01-24T02:04:53;23.60;74.50
8002;DHT22;4046;48.774;8.732;2023-01-24T02:07:50;23.60;74.50
8002;DHT22;4046;48.774;8.732;2023-01-24T02:10:16;23.60;74.50
8002;DHT22;4046;48.774;8.732;2023-01-24T02:12:45;23.60;74.50
8002;DHT22;4046;48.774;8.732;2023-01-24T02:15:16;23.60;75.30
8002;DHT22;4046;48.774;8.732;2023-01-24T02:18:01;23.60;74.50
8002;DHT22;4046;48.774;8.732;2023-01-24T02:20:43;23.60;74.50
8002;DHT22;4046;48.774;8.732;2023-01-24T02:26:17;23.60;74.50
8002;DHT22;4046;48.774;8.732;2023-01-24T02:28:50;23.60;74.50
8002;DHT22;4046;48.774;8.732;2023-01-24T02:31:17;23.60;74.50
8002;DHT22;4046;48.774;8.732;2023-01-24T02:33:43;23.60;74.50
8002;DHT22;4046;48.774;8.732;2023-01-24T02:36:15;23.70;74.60
8002;DHT22;4046;48.774;8.732;2023-01-24T02:38:49;23.60;74.50
8002;DHT22;4046;48.774;8.732;2023-01-24T02:41:17;23.60;74.50
8002;DHT22;4046;48.774;8.732;2023-01-24T02:43:48;23.70;74.60
8002;DHT22;4046;48.774;8.732;2023-01-24T02:46:15;23.70;74.60
8002;DHT22;4046;48.774;8.732;2023-01-24T02:48:41;23.70;74.60
8002;DHT22;4046;48.774;8.732;2023-01-24T02:51:07;23.60;74.50
8002;DHT22;4046;48.774;8.732;2023-01-24T02:53:52;23.70;74.60
8002;DHT22;4046;48.774;8.732;2023-01-24T02:56:18;23.70;74.60
8002;DHT22;4046;48.774;8.732;2023-01-24T02:59:03;23.70;74.60
8002;DHT22;4046;48.774;8.732;2023-01-24T03:01:30;23.70;74.60
8002;DHT22;4046;48.774;8.732;2023-01-24T03:03:57;23.70;74.60
8002;DHT22;4046;48.774;8.732;2023-01-24T03:06:23;23.70;74.60
8002;DHT22;4046;48.774;8.732;2023-01-24T03:08:50;23.70;74.60
8002;DHT22;4046;48.774;8.732;2023-01-24T03:11:16;23.70;74.60
8002;DHT22;4046;48.774;8.732;2023-01-24T03:13:42;23.70;74.60
8002;DHT22;4046;48.774;8.732;2023-01-24T03:16:27;23.70;75.40
8002;DHT22;4046;48.774;8.732;2023-01-24T03:19:11;23.70;74.60
8002;DHT22;4046;48.774;8.732;2023-01-24T03:21:56;23.70;74.60
8002;DHT22;4046;48.774;8.732;2023-01-24T03:24:41;23.70;74.60
8002;DHT22;4046;48.774;8.732;2023-01-24T03:27:26;23.70;74.60
8002;DHT22;4046;48.774;8.732;2023-01-24T03:30:11;23.70;74.60
8002;DHT22;4046;48.774;8.732;2023-01-24T03:33:02;23.70;74.60
8002;DHT22;4046;48.774;8.732;2023-01-24T03:35:49;23.70;74.60
8002;DHT22;4046;48.774;8.732;2023-01-24T03:38:21;23.70;74.60
8002;DHT22;4046;48.774;8.732;2023-01-24T03:41:06;23.70;74.60
8002;DHT22;4046;48.774;8.732;2023-01-24T03:43:32;23.70;74.60
8002;DHT22;4046;48.774;8.732;2023-01-24T03:45:58;23.70;74.60
8002;DHT22;4046;48.774;8.732;2023-01-24T03:48:24;23.70;74.60
8002;DHT22;4046;48.774;8.732;2023-01-24T03:51:00;23.70;74.60
8002;DHT22;4046;48.774;8.732;2023-01-24T03:53:45;23.70;74.60
8002;DHT22;4046;48.774;8.732;2023-01-24T03:56:11;23.70;74.60
8002;DHT22;4046;48.774;8.732;2023-01-24T03:58:37;23.70;74.60
8002;DHT22;4046;48.774;8.732;2023-01-24T04:01:04;23.70;74.60
8002;DHT22;4046;48.774;8.732;2023-01-24T04:03:30;23.70;74.60
8002;DHT22;4046;48.774;8.732;2023-01-24T04:05:58;23.70;74.60
8002;DHT22;4046;48.774;8.732;2023-01-24T04:08:24;23.70;74.60
8002;DHT22;4046;48.774;8.732;2023-01-24T04:10:51;23.70;74.50
8002;DHT22;4046;48.774;8.732;2023-01-24T04:13:17;23.70;74.60
8002;DHT22;4046;48.774;8.732;2023-01-24T04:15:44;23.70;74.60
8002;DHT22;4046;48.774;8.732;2023-01-24T04:18:10;23.70;74.60
8002;DHT22;4046;48.774;8.732;2023-01-24T04:20:37;23.70;74.50
8002;DHT22;4046;48.774;8.732;2023-01-24T04:23:06;23.70;74.50
8002;DHT22;4046;48.774;8.732;2023-01-24T04:25:33;23.70;74.60
8002;DHT22;4046;48.774;8.732;2023-01-24T04:28:00;23.70;74.60
8002;DHT22;4046;48.774;8.732;2023-01-24T04:30:26;23.70;74.60
8002;DHT22;4046;48.774;8.732;2023-01-24T04:32:53;23.70;74.50
8002;DHT22;4046;48.774;8.732;2023-01-24T04:35:24;23.70;74.50
8002;DHT22;4046;48.774;8.732;2023-01-24T04:37:51;23.70;74.50
8002;DHT22;4046;48.774;8.732;2023-01-24T04:40:18;23.70;74.60
8002;DHT22;4046;48.774;8.732;2023-01-24T04:42:44;23.70;74.50
8002;DHT22;4046;48.774;8.732;2023-01-24T04:45:10;23.70;74.60
8002;DHT22;4046;48.774;8.732;2023-01-24T04:47:37;23.70;74.50
8002;DHT22;4046;48.774;8.732;2023-01-24T04:50:04;23.70;74.60
8002;DHT22;4046;48.774;8.732;2023-01-24T04:52:30;23.70;74.50
8002;DHT22;4046;48.774;8.732;2023-01-24T04:54:56;23.70;74.60
8002;DHT22;4046;48.774;8.732;2023-01-24T04:57:22;23.70;74.50
8002;DHT22;4046;48.774;8.732;2023-01-24T04:59:48;23.70;74.50
8002;DHT22;4046;48.774;8.732;2023-01-24T05:02:14;23.70;74.60
8002;DHT22;4046;48.774;8.732;2023-01-24T05:04:41;23.70;74.60
8002;DHT22;4046;48.774;8.732;2023-01-24T05:07:08;23.70;74.50
8002;DHT22;4046;48.774;8.732;2023-01-24T05:09:34;23.70;74.50
8002;DHT22;4046;48.774;8.732;2023-01-24T05:12:00;23.70;74.60
8002;DHT22;4046;48.774;8.732;2023-01-24T05:14:26;23.70;74.60
8002;DHT22;4046;48.774;8.732;2023-01-24T05:16:52;23.80;74.60
8002;DHT22;4046;48.774;8.732;2023-01-24T05:19:19;23.80;74.60
8002;DHT22;4046;48.774;8.732;2023-01-24T05:21:45;23.70;74.50
8002;DHT22;4046;48.774;8.732;2023-01-24T05:24:11;23.70;74.50
8002;DHT22;4046;48.774;8.732;2023-01-24T05:26:37;23.70;74.50
8002;DHT22;4046;48.774;8.732;2023-01-24T05:29:03;23.70;74.60
8002;DHT22;4046;48.774;8.732;2023-01-24T05:31:29;23.70;74.50
8002;DHT22;4046;48.774;8.732;2023-01-24T05:33:56;23.70;74.50
8002;DHT22;4046;48.774;8.732;2023-01-24T05:36:22;23.80;74.60
8002;DHT22;4046;48.774;8.732;2023-01-24T05:38:50;23.80;74.60
8002;DHT22;4046;48.774;8.732;2023-01-24T05:41:18;23.70;74.50
8002;DHT22;4046;48.774;8.732;2023-01-24T05:43:46;23.70;74.50
8002;DHT22;4046;48.774;8.732;2023-01-24T05:46:15;23.80;74.60
8002;DHT22;4046;48.774;8.732;2023-01-24T05:48:43;23.70;74.60
8002;DHT22;4046;48.774;8.732;2023-01-24T05:51:11;23.70;74.60
8002;DHT22;4046;48.774;8.732;2023-01-24T05:53:39;23.70;74.50
8002;DHT22;4046;48.774;8.732;2023-01-24T05:56:12;23.70;74.50
8002;DHT22;4046;48.774;8.732;2023-01-24T05:58:40;23.70;74.60
8002;DHT22;4046;48.774;8.732;2023-01-24T06:01:12;23.70;74.50
8002;DHT22;4046;48.774;8.732;2023-01-24T06:03:41;23.70;74.60
8002;DHT22;4046;48.774;8.732;2023-01-24T06:06:09;23.70;74.60
8002;DHT22;4046;48.774;8.732;2023-01-24T06:08:36;23.70;74.60
8002;DHT22;4046;48.774;8.732;2023-01-24T06:13:29;23.70;74.60
8002;DHT22;4046;48.774;8.732;2023-01-24T06:16:06;23.70;74.60
8002;DHT22;4046;48.774;8.732;2023-01-24T06:18:33;23.70;74.60
8002;DHT22;4046;48.774;8.732;2023-01-24T06:21:24;23.70;74.60
8002;DHT22;4046;48.774;8.732;2023-01-24T06:23:54;23.70;74.70
8002;DHT22;4046;48.774;8.732;2023-01-24T06:26:20;23.60;74.60
8002;DHT22;4046;48.774;8.732;2023-01-24T06:28:46;23.60;74.60
8002;DHT22;4046;48.774;8.732;2023-01-24T06:31:22;23.60;74.60
8002;DHT22;4046;48.774;8.732;2023-01-24T06:36:41;23.60;74.60
8002;DHT22;4046;48.774;8.732;2023-01-24T06:39:14;23.60;74.60
8002;DHT22;4046;48.774;8.732;2023-01-24T06:41:40;23.60;74.60
8002;DHT22;4046;48.774;8.732;2023-01-24T06:44:09;23.60;74.60
8002;DHT22;4046;48.774;8.732;2023-01-24T06:46:36;23.60;74.60
8002;DHT22;4046;48.774;8.732;2023-01-24T06:49:02;23.60;74.60
8002;DHT22;4046;48.774;8.732;2023-01-24T06:51:28;23.60;74.60
8002;DHT22;4046;48.774;8.732;2023-01-24T06:53:54;23.60;74.70
8002;DHT22;4046;48.774;8.732;2023-01-24T06:56:20;23.60;74.60
8002;DHT22;4046;48.774;8.732;2023-01-24T06:58:47;23.60;74.60
8002;DHT22;4046;48.774;8.732;2023-01-24T07:01:13;23.60;75.30
8002;DHT22;4046;48.774;8.732;2023-01-24T07:03:39;23.60;75.30
8002;DHT22;4046;48.774;8.732;2023-01-24T07:06:06;23.60;75.30
8002;DHT22;4046;48.774;8.732;2023-01-24T07:08:32;23.60;75.90
8002;DHT22;4046;48.774;8.732;2023-01-24T07:10:58;23.60;75.10
8002;DHT22;4046;48.774;8.732;2023-01-24T07:13:25;23.60;75.00
8002;DHT22;4046;48.774;8.732;2023-01-24T07:15:51;23.60;75.00
8002;DHT22;4046;48.774;8.732;2023-01-24T07:18:19;23.60;74.90
8002;DHT22;4046;48.774;8.732;2023-01-24T07:20:45;23.60;74.90
8002;DHT22;4046;48.774;8.732;2023-01-24T07:23:26;23.60;74.90
8002;DHT22;4046;48.774;8.732;2023-01-24T07:25:57;23.60;74.80
8002;DHT22;4046;48.774;8.732;2023-01-24T07:28:24;23.60;74.80
8002;DHT22;4046;48.774;8.732;2023-01-24T07:30:52;23.70;74.90
8002;DHT22;4046;48.774;8.732;2023-01-24T07:33:19;23.60;74.80
8002;DHT22;4046;48.774;8.732;2023-01-24T07:35:45;23.60;74.70
8002;DHT22;4046;48.774;8.732;2023-01-24T07:38:12;23.60;74.70
8002;DHT22;4046;48.774;8.732;2023-01-24T07:40:38;23.70;74.80
8002;DHT22;4046;48.774;8.732;2023-01-24T07:43:05;23.70;74.90
8002;DHT22;4046;48.774;8.732;2023-01-24T07:45:32;23.70;74.80
8002;DHT22;4046;48.774;8.732;2023-01-24T07:48:01;23.70;74.80
8002;DHT22;4046;48.774;8.732;2023-01-24T07:50:28;23.60;74.70
8002;DHT22;4046;48.774;8.732;2023-01-24T07:52:57;23.60;74.80
8002;DHT22;4046;48.774;8.732;2023-01-24T07:55:23;23.60;74.80
8002;DHT22;4046;48.774;8.732;2023-01-24T07:57:50;23.50;74.80
8002;DHT22;4046;48.774;8.732;2023-01-24T08:00:16;23.50;74.80
8002;DHT22;4046;48.774;8.732;2023-01-24T08:02:44;23.40;74.70
8002;DHT22;4046;48.774;8.732;2023-01-24T08:05:10;23.40;74.80
8002;DHT22;4046;48.774;8.732;2023-01-24T08:07:37;23.40;74.80
8002;DHT22;4046;48.774;8.732;2023-01-24T08:10:04;23.40;74.80
8002;DHT22;4046;48.774;8.732;2023-01-24T08:12:30;23.30;74.80
8002;DHT22;4046;48.774;8.732;2023-01-24T08:14:56;23.30;74.80
8002;DHT22;4046;48.774;8.732;2023-01-24T08:17:23;23.30;74.80
8002;DHT22;4046;48.774;8.732;2023-01-24T08:19:49;23.30;74.80
8002;DHT22;4046;48.774;8.732;2023-01-24T08:22:15;23.20;74.70
8002;DHT22;4046;48.774;8.732;2023-01-24T08:24:41;23.20;74.80
8002;DHT22;4046;48.774;8.732;2023-01-24T08:27:07;23.20;74.80
8002;DHT22;4046;48.774;8.732;2023-01-24T08:29:33;23.20;74.80
8002;DHT22;4046;48.774;8.732;2023-01-24T08:32:00;23.20;74.80
8002;DHT22;4046;48.774;8.732;2023-01-24T08:34:26;23.20;74.80
8002;DHT22;4046;48.774;8.732;2023-01-24T08:36:52;23.20;74.80
8002;DHT22;4046;48.774;8.732;2023-01-24T08:39:19;23.10;74.70
8002;DHT22;4046;48.774;8.732;2023-01-24T08:41:45;23.20;74.90
8002;DHT22;4046;48.774;8.732;2023-01-24T08:44:13;23.20;74.90
8002;DHT22;4046;48.774;8.732;2023-01-24T08:46:39;23.10;74.70
8002;DHT22;4046;48.774;8.732;2023-01-24T08:49:06;23.10;74.70
8002;DHT22;4046;48.774;8.732;2023-01-24T08:51:32;23.10;74.80
8002;DHT22;4046;48.774;8.732;2023-01-24T08:53:58;23.10;74.80
8002;DHT22;4046;48.774;8.732;2023-01-24T08:56:24;23.10;74.80
8002;DHT22;4046;48.774;8.732;2023-01-24T08:58:51;23.10;74.80
8002;DHT22;4046;48.774;8.732;2023-01-24T09:01:17;23.10;74.80
8002;DHT22;4046;48.774;8.732;2023-01-24T09:03:43;23.10;74.80
8002;DHT22;4046;48.774;8.732;2023-01-24T09:06:10;23.10;74.80
8002;DHT22;4046;48.774;8.732;2023-01-24T09:08:36;23.10;74.80
8002;DHT22;4046;48.774;8.732;2023-01-24T09:11:03;23.10;74.80
8002;DHT22;4046;48.774;8.732;2023-01-24T09:13:29;23.10;74.80
8002;DHT22;4046;48.774;8.732;2023-01-24T09:15:57;23.10;74.90
8002;DHT22;4046;48.774;8.732;2023-01-24T09:18:24;23.10;74.80
8002;DHT22;4046;48.774;8.732;2023-01-24T09:20:51;23.00;74.70
8002;DHT22;4046;48.774;8.732;2023-01-24T09:23:17;23.00;74.70
8002;DHT22;4046;48.774;8.732;2023-01-24T09:25:53;23.00;74.70
8002;DHT22;4046;48.774;8.732;2023-01-24T09:28:20;23.00;74.70
8002;DHT22;4046;48.774;8.732;2023-01-24T09:30:49;23.00;74.70
8002;DHT22;4046;48.774;8.732;2023-01-24T09:33:16;23.00;74.70
8002;DHT22;4046;48.774;8.732;2023-01-24T09:35:54;23.00;74.80
8002;DHT22;4046;48.774;8.732;2023-01-24T09:38:21;23.00;74.80
8002;DHT22;4046;48.774;8.732;2023-01-24T09:48:48;22.90;74.70
8002;DHT22;4046;48.774;8.732;2023-01-24T09:51:22;23.00;74.80
8002;DHT22;4046;48.774;8.732;2023-01-24T09:53:53;22.90;74.70
8002;DHT22;4046;48.774;8.732;2023-01-24T09:56:34;22.90;74.80
8002;DHT22;4046;48.774;8.732;2023-01-24T10:01:51;22.90;74.70
8002;DHT22;4046;48.774;8.732;2023-01-24T10:04:25;22.90;74.70
8002;DHT22;4046;48.774;8.732;2023-01-24T10:07:05;22.90;74.70
8002;DHT22;4046;48.774;8.732;2023-01-24T10:10:37;22.90;74.70
8002;DHT22;4046;48.774;8.732;2023-01-24T10:12:53;22.90;74.70
8002;DHT22;4046;48.774;8.732;2023-01-24T10:15:31;22.90;74.70
8002;DHT22;4046;48.774;8.732;2023-01-24T10:18:24;22.90;74.80
8002;DHT22;4046;48.774;8.732;2023-01-24T10:23:41;22.90;74.70
8002;DHT22;4046;48.774;8.732;2023-01-24T10:26:47;22.90;74.80
8002;DHT22;4046;48.774;8.732;2023-01-24T10:29:24;22.90;74.70
8002;DHT22;4046;48.774;8.732;2023-01-24T10:32:14;22.90;74.80
8002;DHT22;4046;48.774;8.732;2023-01-24T10:34:44;22.90;74.80
8002;DHT22;4046;48.774;8.732;2023-01-24T10:37:41;22.90;74.80
8002;DHT22;4046;48.774;8.732;2023-01-24T10:40:13;22.90;74.80
8002;DHT22;4046;48.774;8.732;2023-01-24T10:42:39;22.90;74.80
8002;DHT22;4046;48.774;8.732;2023-01-24T10:45:35;22.90;74.80
8002;DHT22;4046;48.774;8.732;2023-01-24T10:48:35;22.90;74.80
8002;DHT22;4046;48.774;8.732;2023-01-24T10:51:14;22.90;74.80
8002;DHT22;4046;48.774;8.732;2023-01-24T10:53:42;22.90;74.80
8002;DHT22;4046;48.774;8.732;2023-01-24T10:56:09;22.90;74.80
8002;DHT22;4046;48.774;8.732;2023-01-24T10:58:56;22.90;74.80
8002;DHT22;4046;48.774;8.732;2023-01-24T11:01:44;22.90;74.80
8002;DHT22;4046;48.774;8.732;2023-01-24T11:04:20;22.90;74.80
8002;DHT22;4046;48.774;8.732;2023-01-24T11:06:49;22.90;74.90
8002;DHT22;4046;48.774;8.732;2023-01-24T11:09:17;22.90;74.90
8002;DHT22;4046;48.774;8.732;2023-01-24T11:11:50;22.90;74.90
8002;DHT22;4046;48.774;8.732;2023-01-24T11:14:20;22.90;74.90
8002;DHT22;4046;48.774;8.732;2023-01-24T11:16:50;22.90;74.90
8002;DHT22;4046;48.774;8.732;2023-01-24T11:19:31;22.90;74.90
8002;DHT22;4046;48.774;8.732;2023-01-24T11:22:17;22.90;74.90
8002;DHT22;4046;48.774;8.732;2023-01-24T11:24:45;22.90;74.90
8002;DHT22;4046;48.774;8.732;2023-01-24T11:27:17;22.90;74.90
8002;DHT22;4046;48.774;8.732;2023-01-24T11:29:44;22.90;74.90
8002;DHT22;4046;48.774;8.732;2023-01-24T11:48:19;22.80;74.80
8002;DHT22;4046;48.774;8.732;2023-01-24T11:53:44;22.80;74.90
8002;DHT22;4046;48.774;8.732;2023-01-24T11:56:24;22.80;74.90
8002;DHT22;4046;48.774;8.732;2023-01-24T11:58:56;22.80;74.90
8002;DHT22;4046;48.774;8.732;2023-01-24T12:01:40;22.80;74.90
8002;DHT22;4046;48.774;8.732;2023-01-24T12:07:11;22.80;74.90
8002;DHT22;4046;48.774;8.732;2023-01-24T12:09:52;22.80;74.90
8002;DHT22;4046;48.774;8.732;2023-01-24T12:12:41;22.80;74.80
8002;DHT22;4046;48.774;8.732;2023-01-24T12:23:31;22.80;74.90
8002;DHT22;4046;48.774;8.732;2023-01-24T12:26:05;22.80;74.90
8002;DHT22;4046;48.774;8.732;2023-01-24T12:28:43;22.80;74.90
8002;DHT22;4046;48.774;8.732;2023-01-24T12:31:16;22.80;74.90
8002;DHT22;4046;48.774;8.732;2023-01-24T12:33:58;22.80;74.90
8002;DHT22;4046;48.774;8.732;2023-01-24T12:36:35;22.70;74.90
8002;DHT22;4046;48.774;8.732;2023-01-24T12:39:12;22.70;74.80
8002;DHT22;4046;48.774;8.732;2023-01-24T12:41:39;22.70;74.90
8002;DHT22;4046;48.774;8.732;2023-01-24T12:47:10;22.80;74.90
8002;DHT22;4046;48.774;8.732;2023-01-24T12:49:45;22.70;74.90
8002;DHT22;4046;48.774;8.732;2023-01-24T12:52:27;22.70;74.90
8002;DHT22;4046;48.774;8.732;2023-01-24T13:01:05;22.70;74.90
8002;DHT22;4046;48.774;8.732;2023-01-24T13:06:27;22.70;75.00
8002;DHT22;4046;48.774;8.732;2023-01-24T13:09:21;22.70;75.00
8002;DHT22;4046;48.774;8.732;2023-01-24T13:11:51;22.70;75.00
8002;DHT22;4046;48.774;8.732;2023-01-24T13:14:25;22.70;75.00
8002;DHT22;4046;48.774;8.732;2023-01-24T13:28:07;22.70;75.00
8002;DHT22;4046;48.774;8.732;2023-01-24T13:33:14;22.70;75.00
8002;DHT22;4046;48.774;8.732;2023-01-24T13:35:50;22.70;75.00
8002;DHT22;4046;48.774;8.732;2023-01-24T13:38:25;22.70;75.00
8002;DHT22;4046;48.774;8.732;2023-01-24T13:41:01;22.70;75.00
8002;DHT22;4046;48.774;8.732;2023-01-24T13:44:34;22.70;75.00
8002;DHT22;4046;48.774;8.732;2023-01-24T13:49:31;22.70;75.00
8002;DHT22;4046;48.774;8.732;2023-01-24T13:51:59;22.70;75.00
8002;DHT22;4046;48.774;8.732;2023-01-24T13:54:40;22.70;75.00
8002;DHT22;4046;48.774;8.732;2023-01-24T13:57:20;22.70;75.00
8002;DHT22;4046;48.774;8.732;2023-01-24T14:02:32;22.70;75.10
8002;DHT22;4046;48.774;8.732;2023-01-24T14:05:00;22.70;75.00
8002;DHT22;4046;48.774;8.732;2023-01-24T14:07:39;22.70;75.10
8002;DHT22;4046;48.774;8.732;2023-01-24T14:10:06;22.70;75.10
8002;DHT22;4046;48.774;8.732;2023-01-24T14:12:37;22.70;75.10
8002;DHT22;4046;48.774;8.732;2023-01-24T14:22:59;22.70;75.10
8002;DHT22;4046;48.774;8.732;2023-01-24T14:28:11;22.60;75.10
8002;DHT22;4046;48.774;8.732;2023-01-24T14:30:43;22.70;75.20
8002;DHT22;4046;48.774;8.732;2023-01-24T14:33:51;22.60;75.10
8002;DHT22;4046;48.774;8.732;2023-01-24T14:36:34;22.60;75.10
8002;DHT22;4046;48.774;8.732;2023-01-24T14:39:20;22.60;75.10
8002;DHT22;4046;48.774;8.732;2023-01-24T14:41:49;22.60;75.10
8002;DHT22;4046;48.774;8.732;2023-01-24T14:44:22;22.60;75.10
8002;DHT22;4046;48.774;8.732;2023-01-24T14:46:54;22.60;75.10
8002;DHT22;4046;48.774;8.732;2023-01-24T14:49:45;22.60;75.10
8002;DHT22;4046;48.774;8.732;2023-01-24T14:52:31;22.60;75.10
8002;DHT22;4046;48.774;8.732;2023-01-24T14:57:52;22.60;75.10
8002;DHT22;4046;48.774;8.732;2023-01-24T15:00:20;22.60;75.20
8002;DHT22;4046;48.774;8.732;2023-01-24T15:02:57;22.60;75.10
8002;DHT22;4046;48.774;8.732;2023-01-24T15:05:27;22.60;75.10
8002;DHT22;4046;48.774;8.732;2023-01-24T15:07:55;22.60;75.10
8002;DHT22;4046;48.774;8.732;2023-01-24T15:10:26;22.60;75.20
8002;DHT22;4046;48.774;8.732;2023-01-24T15:12:54;22.60;75.10
8002;DHT22;4046;48.774;8.732;2023-01-24T15:15:21;22.60;75.10
8002;DHT22;4046;48.774;8.732;2023-01-24T15:17:49;22.60;75.10
8002;DHT22;4046;48.774;8.732;2023-01-24T15:20:18;22.60;75.10
8002;DHT22;4046;48.774;8.732;2023-01-24T15:22:52;22.60;75.10
8002;DHT22;4046;48.774;8.732;2023-01-24T15:25:20;22.60;75.10
8002;DHT22;4046;48.774;8.732;2023-01-24T15:27:46;22.60;75.10
8002;DHT22;4046;48.774;8.732;2023-01-24T15:30:22;22.60;75.10
8002;DHT22;4046;48.774;8.732;2023-01-24T15:38:32;22.60;75.10
8002;DHT22;4046;48.774;8.732;2023-01-24T15:41:17;22.60;75.10
8002;DHT22;4046;48.774;8.732;2023-01-24T15:44:00;22.60;75.20
8002;DHT22;4046;48.774;8.732;2023-01-24T15:46:42;22.60;75.10
8002;DHT22;4046;48.774;8.732;2023-01-24T15:49:30;22.60;75.10
8002;DHT22;4046;48.774;8.732;2023-01-24T15:54:28;22.60;75.20
8002;DHT22;4046;48.774;8.732;2023-01-24T15:56:57;22.60;75.20
8002;DHT22;4046;48.774;8.732;2023-01-24T15:59:24;22.60;75.20
8002;DHT22;4046;48.774;8.732;2023-01-24T16:01:51;22.60;75.20
8002;DHT22;4046;48.774;8.732;2023-01-24T16:04:19;22.60;75.90
8002;DHT22;4046;48.774;8.732;2023-01-24T16:06:45;22.60;75.10
8002;DHT22;4046;48.774;8.732;2023-01-24T16:09:12;22.60;75.20
8002;DHT22;4046;48.774;8.732;2023-01-24T16:11:39;22.60;75.10
8002;DHT22;4046;48.774;8.732;2023-01-24T16:14:10;22.60;75.10
8002;DHT22;4046;48.774;8.732;2023-01-24T16:16:38;22.60;75.10
8002;DHT22;4046;48.774;8.732;2023-01-24T16:19:14;22.60;75.10
8002;DHT22;4046;48.774;8.732;2023-01-24T16:21:41;22.60;75.10
8002;DHT22;4046;48.774;8.732;2023-01-24T16:24:08;22.60;75.10
8002;DHT22;4046;48.774;8.732;2023-01-24T16:26:34;22.60;75.20
8002;DHT22;4046;48.774;8.732;2023-01-24T16:29:00;22.60;75.10
8002;DHT22;4046;48.774;8.732;2023-01-24T16:31:26;22.60;75.10
8002;DHT22;4046;48.774;8.732;2023-01-24T16:33:53;22.60;75.10
8002;DHT22;4046;48.774;8.732;2023-01-24T16:36:19;22.60;75.20
8002;DHT22;4046;48.774;8.732;2023-01-24T16:38:46;22.60;75.10
8002;DHT22;4046;48.774;8.732;2023-01-24T16:41:12;22.60;75.10
8002;DHT22;4046;48.774;8.732;2023-01-24T16:43:42;22.60;75.10
8002;DHT22;4046;48.774;8.732;2023-01-24T16:46:20;22.60;75.10
8002;DHT22;4046;48.774;8.732;2023-01-24T16:48:46;22.70;75.30
8002;DHT22;4046;48.774;8.732;2023-01-24T16:51:14;22.70;75.20
8002;DHT22;4046;48.774;8.732;2023-01-24T16:53:40;22.80;75.30
8002;DHT22;4046;48.774;8.732;2023-01-24T16:56:07;22.80;75.20
8002;DHT22;4046;48.774;8.732;2023-01-24T16:58:34;22.80;75.20
8002;DHT22;4046;48.774;8.732;2023-01-24T17:01:06;22.80;75.20
8002;DHT22;4046;48.774;8.732;2023-01-24T17:03:32;22.90;75.30
8002;DHT22;4046;48.774;8.732;2023-01-24T17:05:58;22.90;75.30
8002;DHT22;4046;48.774;8.732;2023-01-24T17:08:24;22.90;75.20
8002;DHT22;4046;48.774;8.732;2023-01-24T17:10:51;23.00;75.30
8002;DHT22;4046;48.774;8.732;2023-01-24T17:13:17;23.00;75.30
8002;DHT22;4046;48.774;8.732;2023-01-24T17:15:43;23.00;75.30
8002;DHT22;4046;48.774;8.732;2023-01-24T17:18:09;23.00;75.20
8002;DHT22;4046;48.774;8.732;2023-01-24T17:20:36;23.00;75.20
8002;DHT22;4046;48.774;8.732;2023-01-24T17:23:02;23.10;75.30
8002;DHT22;4046;48.774;8.732;2023-01-24T17:25:30;23.10;75.30
8002;DHT22;4046;48.774;8.732;2023-01-24T17:27:56;23.10;75.20
8002;DHT22;4046;48.774;8.732;2023-01-24T17:30:23;23.10;75.30
8002;DHT22;4046;48.774;8.732;2023-01-24T17:32:49;23.20;75.30
8002;DHT22;4046;48.774;8.732;2023-01-24T17:35:15;23.20;75.30
8002;DHT22;4046;48.774;8.732;2023-01-24T17:37:41;23.20;75.20
8002;DHT22;4046;48.774;8.732;2023-01-24T17:40:08;23.20;75.30
8002;DHT22;4046;48.774;8.732;2023-01-24T17:42:35;23.20;75.20
8002;DHT22;4046;48.774;8.732;2023-01-24T17:45:02;23.20;75.20
8002;DHT22;4046;48.774;8.732;2023-01-24T17:47:28;23.20;75.20
8002;DHT22;4046;48.774;8.732;2023-01-24T17:49:54;23.30;75.20
8002;DHT22;4046;48.774;8.732;2023-01-24T17:52:21;23.30;75.20
8002;DHT22;4046;48.774;8.732;2023-01-24T17:54:47;23.30;75.20
8002;DHT22;4046;48.774;8.732;2023-01-24T17:57:13;23.30;75.20
8002;DHT22;4046;48.774;8.732;2023-01-24T17:59:39;23.30;75.20
8002;DHT22;4046;48.774;8.732;2023-01-24T18:02:05;23.30;75.20
8002;DHT22;4046;48.774;8.732;2023-01-24T18:04:31;23.30;75.10
8002;DHT22;4046;48.774;8.732;2023-01-24T18:06:58;23.40;75.30
8002;DHT22;4046;48.774;8.732;2023-01-24T18:09:24;23.40;75.30
8002;DHT22;4046;48.774;8.732;2023-01-24T18:11:52;23.40;75.30